createdAt,value
2016-07-11T00:00:21.176Z,21.6
2016-07-11T00:03:36.233Z,21.5
2016-07-11T00:06:51.323Z,21.5
2016-07-11T00:10:06.075Z,21.5
2016-07-11T00:13:20.839Z,21.4
2016-07-11T00:16:35.234Z,21.4
2016-07-11T00:19:49.955Z,21.4
2016-07-11T00:23:04.705Z,21.4
2016-07-11T00:26:19.721Z,21.3
2016-07-11T00:29:34.652Z,21.3
2016-07-11T00:32:48.870Z,21.3
2016-07-11T00:36:03.561Z,21.3
2016-07-11T00:39:18.146Z,21.2
2016-07-11T00:42:33.199Z,21.2
2016-07-11T00:45:48.058Z,21.2
2016-07-11T00:49:03.182Z,21.2
2016-07-11T00:52:18.250Z,21.1
2016-07-11T00:55:33.330Z,21.1
2016-07-11T00:58:48.273Z,21.1
2016-07-11T01:02:02.976Z,21.1
2016-07-11T01:05:17.823Z,21
2016-07-11T01:08:32.813Z,21
2016-07-11T01:11:47.762Z,21
2016-07-11T01:15:02.855Z,21
2016-07-11T01:18:17.828Z,21
2016-07-11T01:21:32.593Z,21
2016-07-11T01:24:47.637Z,20.9
2016-07-11T01:28:02.743Z,20.9
2016-07-11T01:31:17.816Z,20.9
2016-07-11T01:34:33.024Z,20.9
2016-07-11T01:37:48.020Z,20.9
2016-07-11T01:41:03.121Z,20.9
2016-07-11T01:44:17.953Z,20.8
2016-07-11T01:47:33.018Z,20.8
2016-07-11T01:50:48.097Z,20.8
2016-07-11T01:54:03.150Z,20.8
2016-07-11T01:57:18.067Z,20.7
2016-07-11T02:00:32.962Z,20.7
2016-07-11T02:03:47.561Z,20.7
2016-07-11T02:07:02.634Z,20.6
2016-07-11T02:10:17.728Z,20.6
2016-07-11T02:13:31.763Z,20.6
2016-07-11T02:16:46.954Z,20.6
2016-07-11T02:20:01.750Z,20.5
2016-07-11T02:23:16.859Z,20.5
2016-07-11T02:26:31.729Z,20.5
2016-07-11T02:29:46.839Z,20.4
2016-07-11T02:33:01.476Z,20.4
2016-07-11T02:36:16.399Z,20.4
2016-07-11T02:39:31.717Z,20.4
2016-07-11T02:42:51.044Z,20.4
2016-07-11T02:45:56.269Z,20.4
2016-07-11T02:49:11.320Z,20.3
2016-07-11T02:52:26.322Z,20.3
2016-07-11T02:55:46.329Z,20.3
2016-07-11T02:58:51.610Z,20.3
2016-07-11T03:02:06.377Z,20.3
2016-07-11T03:05:21.445Z,20.3
2016-07-11T03:08:36.573Z,20.3
2016-07-11T03:11:51.499Z,20.2
2016-07-11T03:15:06.505Z,20.2
2016-07-11T03:18:21.590Z,20.2
2016-07-11T03:21:36.286Z,20.2
2016-07-11T03:24:51.209Z,20.2
2016-07-11T03:28:10.329Z,20.2
2016-07-11T03:31:21.141Z,20.2
2016-07-11T03:34:36.178Z,20.1
2016-07-11T03:37:50.791Z,20.1
2016-07-11T03:41:05.459Z,20.2
2016-07-11T03:44:20.365Z,20.2
2016-07-11T03:47:35.025Z,20.2
2016-07-11T03:50:49.912Z,20.2
2016-07-11T03:54:04.455Z,20.2
2016-07-11T03:57:19.330Z,20.2
2016-07-11T04:00:34.286Z,20.2
2016-07-11T04:03:49.324Z,20.3
2016-07-11T04:07:04.276Z,20.3
2016-07-11T04:10:19.051Z,20.3
2016-07-11T04:13:33.982Z,20.3
2016-07-11T04:16:48.558Z,20.3
2016-07-11T04:20:03.636Z,20.3
2016-07-11T04:23:18.287Z,20.2
2016-07-11T04:26:33.368Z,20.3
2016-07-11T04:29:48.105Z,20.3
2016-07-11T04:33:02.698Z,20.4
2016-07-11T04:36:17.583Z,20.5
2016-07-11T04:39:31.386Z,20.6
2016-07-11T04:42:51.290Z,20.6
2016-07-11T04:45:56.866Z,20.7
2016-07-11T04:49:11.997Z,20.7
2016-07-11T04:52:27.156Z,20.8
2016-07-11T04:55:47.279Z,20.8
2016-07-11T04:58:52.851Z,20.9
2016-07-11T05:02:07.507Z,21
2016-07-11T05:05:22.284Z,21.1
2016-07-11T05:08:41.879Z,21.2
2016-07-11T05:11:47.406Z,21.3
2016-07-11T05:15:02.744Z,21.3
2016-07-11T05:18:17.604Z,21.3
2016-07-11T05:21:32.539Z,21.4
2016-07-11T05:24:46.981Z,21.7
2016-07-11T05:28:02.101Z,21.9
2016-07-11T05:31:14.743Z,22.2
2016-07-11T05:34:31.317Z,22.4
2016-07-11T05:37:51.514Z,22.5
2016-07-11T05:40:57.176Z,22.7
2016-07-11T05:44:12.478Z,22.8
2016-07-11T05:47:25.547Z,23
2016-07-11T05:50:47.318Z,23.2
2016-07-11T05:53:52.969Z,23.3
2016-07-11T05:57:08.256Z,23.6
2016-07-11T06:00:23.783Z,23.8
2016-07-11T06:03:44.063Z,23.9
2016-07-11T06:06:49.881Z,24.2
2016-07-11T06:10:05.399Z,24.4
2016-07-11T06:13:20.724Z,24.7
2016-07-11T06:16:36.235Z,24.9
2016-07-11T06:19:51.454Z,25.1
2016-07-11T06:23:06.831Z,25.1
2016-07-11T06:26:22.353Z,25.3
2016-07-11T06:29:42.918Z,25.6
2016-07-11T06:32:48.746Z,25.8
2016-07-11T06:36:04.091Z,26.2
2016-07-11T06:39:19.161Z,26.4
2016-07-11T06:42:34.600Z,26.6
2016-07-11T06:45:47.813Z,27
2016-07-11T06:49:03.457Z,27.2
2016-07-11T06:52:17.259Z,27.3
2016-07-11T06:55:34.841Z,27.5
2016-07-11T06:58:50.214Z,27.7
2016-07-11T07:02:05.893Z,27.8
2016-07-11T07:05:21.291Z,27.6
2016-07-11T07:08:36.651Z,27.2
2016-07-11T07:11:52.062Z,27
2016-07-11T07:15:05.403Z,26.8
2016-07-11T07:18:20.880Z,26.7
2016-07-11T07:21:36.400Z,26.6
2016-07-11T07:24:51.995Z,26.5
2016-07-11T07:28:07.400Z,26.6
2016-07-11T07:31:22.883Z,26.9
2016-07-11T07:34:43.314Z,26.9
2016-07-11T07:37:49.149Z,26.6
2016-07-11T07:41:04.540Z,26.3
2016-07-11T07:44:19.652Z,26.1
2016-07-11T07:47:34.896Z,26
2016-07-11T07:50:50.052Z,26
2016-07-11T07:54:05.400Z,25.8
2016-07-11T07:57:20.744Z,25.8
2016-07-11T08:00:36.125Z,25.8
2016-07-11T08:03:51.465Z,26.1
2016-07-11T08:07:06.993Z,26.1
2016-07-11T08:10:22.574Z,25.9
2016-07-11T08:13:43.168Z,26.3
2016-07-11T08:16:49.122Z,26.6
2016-07-11T08:20:04.879Z,26.8
2016-07-11T08:23:20.162Z,26.7
2016-07-11T08:26:35.731Z,26.7
2016-07-11T08:29:51.392Z,27.1
2016-07-11T08:33:06.965Z,27.6
2016-07-11T08:36:22.629Z,27.7
2016-07-11T08:39:43.335Z,27.9
2016-07-11T08:42:49.452Z,28.3
2016-07-11T08:46:05.255Z,28.6
2016-07-11T08:49:20.961Z,28.8
2016-07-11T08:52:34.811Z,29
2016-07-11T08:55:48.673Z,29.2
2016-07-11T08:59:04.536Z,29.6
2016-07-11T09:02:20.276Z,29.8
2016-07-11T09:05:36.114Z,29.9
2016-07-11T09:08:51.376Z,29.4
2016-07-11T09:12:06.796Z,29
2016-07-11T09:15:22.261Z,28.6
2016-07-11T09:18:42.941Z,28.7
2016-07-11T09:21:49.122Z,29.4
2016-07-11T09:25:04.993Z,30.1
2016-07-11T09:28:18.825Z,30.2
2016-07-11T09:31:36.578Z,29.9
2016-07-11T09:34:51.885Z,29.5
2016-07-11T09:38:07.066Z,29.4
2016-07-11T09:41:22.819Z,29.5
2016-07-11T09:44:43.270Z,29.2
2016-07-11T09:47:49.227Z,29
2016-07-11T09:51:04.449Z,28.6
2016-07-11T09:54:19.894Z,28.3
2016-07-11T09:57:35.118Z,28.1
2016-07-11T10:00:50.074Z,28
2016-07-11T10:04:05.651Z,28.1
2016-07-11T10:07:21.231Z,28.4
2016-07-11T10:10:41.909Z,28.5
2016-07-11T10:13:47.967Z,28.7
2016-07-11T10:17:03.484Z,28.5
2016-07-11T10:20:19.076Z,28.3
2016-07-11T10:23:34.344Z,27.9
2016-07-11T10:26:49.637Z,27.7
2016-07-11T10:30:05.011Z,27.6
2016-07-11T10:33:20.120Z,27.2
2016-07-11T10:36:35.392Z,27.1
2016-07-11T10:39:50.799Z,27.1
2016-07-11T10:43:06.355Z,27.3
2016-07-11T10:46:21.903Z,27.2
2016-07-11T10:49:42.120Z,27.1
2016-07-11T10:52:47.972Z,27.1
2016-07-11T10:56:03.232Z,27.1
2016-07-11T10:59:18.559Z,27.1
2016-07-11T11:02:33.886Z,27.1
2016-07-11T11:05:49.335Z,27
2016-07-11T11:09:04.849Z,27
2016-07-11T11:12:19.882Z,26.8
2016-07-11T11:15:35.152Z,26.6
2016-07-11T11:18:50.086Z,26.6
2016-07-11T11:22:05.567Z,26.6
2016-07-11T11:25:19.767Z,26.6
2016-07-11T11:28:35.195Z,26.5
2016-07-11T11:31:50.184Z,26.3
2016-07-11T11:35:05.472Z,26.2
2016-07-11T11:38:20.714Z,26.1
2016-07-11T11:41:35.994Z,26.1
2016-07-11T11:44:50.940Z,26
2016-07-11T11:48:06.068Z,26.1
2016-07-11T11:51:21.381Z,26
2016-07-11T11:54:36.189Z,26.1
2016-07-11T11:57:51.111Z,26.1
2016-07-11T12:01:06.329Z,26.1
2016-07-11T12:04:21.556Z,26.1
2016-07-11T12:07:42.059Z,26
2016-07-11T12:10:47.656Z,26
2016-07-11T12:14:03.040Z,26.1
2016-07-11T12:17:18.213Z,26.1
2016-07-11T12:20:33.389Z,26.1
2016-07-11T12:23:48.738Z,26
2016-07-11T12:27:03.956Z,26.1
2016-07-11T12:30:19.011Z,26.1
2016-07-11T12:33:34.296Z,25.9
2016-07-11T12:36:47.250Z,25.9
2016-07-11T12:40:02.320Z,25.9
2016-07-11T12:43:17.493Z,25.9
2016-07-11T12:46:32.539Z,25.9
2016-07-11T12:49:47.802Z,25.9
2016-07-11T12:53:02.788Z,25.9
2016-07-11T12:56:18.169Z,25.8
2016-07-11T12:59:33.437Z,25.7
2016-07-11T13:02:48.506Z,25.7
2016-07-11T13:06:03.705Z,25.7
2016-07-11T13:09:16.950Z,25.7
2016-07-11T13:12:31.712Z,25.8
2016-07-11T13:15:46.638Z,25.8
2016-07-11T13:19:03.796Z,25.8
2016-07-11T13:22:19.066Z,25.8
2016-07-11T13:25:34.010Z,25.8
2016-07-11T13:28:49.293Z,25.8
2016-07-11T13:32:04.275Z,25.7
2016-07-11T13:35:19.493Z,25.6
2016-07-11T13:38:34.501Z,25.6
2016-07-11T13:41:49.726Z,25.5
2016-07-11T13:45:04.786Z,25.5
2016-07-11T13:48:19.973Z,25.5
2016-07-11T13:51:35.112Z,25.4
2016-07-11T13:54:49.878Z,25.3
2016-07-11T13:58:04.949Z,25.3
2016-07-11T14:01:20.227Z,25.3
2016-07-11T14:04:35.508Z,25.3
2016-07-11T14:07:50.741Z,25.3
2016-07-11T14:11:05.915Z,25.4
2016-07-11T14:14:21.074Z,25.4
2016-07-11T14:17:36.045Z,25.5
2016-07-11T14:20:51.208Z,25.5
2016-07-11T14:24:05.327Z,25.5
2016-07-11T14:27:20.442Z,25.5
2016-07-11T14:30:33.854Z,25.5
2016-07-11T14:33:49.078Z,25.5
2016-07-11T14:37:04.085Z,25.5
2016-07-11T14:40:19.217Z,25.5
2016-07-11T14:43:34.249Z,25.4
2016-07-11T14:46:47.974Z,25.3
2016-07-11T14:49:59.901Z,25.3
2016-07-11T14:53:15.159Z,25.1
2016-07-11T14:56:30.208Z,25.1
2016-07-11T14:59:50.411Z,25
2016-07-11T15:02:56.054Z,25
2016-07-11T15:06:10.960Z,25
2016-07-11T15:09:26.337Z,25
2016-07-11T15:12:46.397Z,25
2016-07-11T15:15:51.794Z,24.9
2016-07-11T15:19:06.978Z,24.9
2016-07-11T15:22:22.204Z,24.9
2016-07-11T15:25:42.395Z,24.8
2016-07-11T15:28:47.995Z,24.8
2016-07-11T15:32:02.903Z,24.8
2016-07-11T15:35:18.063Z,24.7
2016-07-11T15:38:33.201Z,24.6
2016-07-11T15:41:48.393Z,24.7
2016-07-11T15:45:03.342Z,24.6
2016-07-11T15:48:18.506Z,24.6
2016-07-11T15:51:33.646Z,24.6
2016-07-11T15:54:48.754Z,24.5
2016-07-11T15:58:03.742Z,24.5
2016-07-11T16:01:18.846Z,24.4
2016-07-11T16:04:34.052Z,24.4
2016-07-11T16:07:49.143Z,24.4
2016-07-11T16:11:04.275Z,24.4
2016-07-11T16:14:19.290Z,24.4
2016-07-11T16:17:34.534Z,24.5
2016-07-11T16:20:49.570Z,24.4
2016-07-11T16:24:04.719Z,24.4
2016-07-11T16:27:19.917Z,24.3
2016-07-11T16:30:35.052Z,24.2
2016-07-11T16:33:50.021Z,24.2
2016-07-11T16:37:05.161Z,24.2
2016-07-11T16:40:20.390Z,24.2
2016-07-11T16:43:35.663Z,24.2
2016-07-11T16:46:50.815Z,24.2
2016-07-11T16:50:05.763Z,24.2
2016-07-11T16:53:20.694Z,24.1
2016-07-11T16:56:35.917Z,24.1
2016-07-11T16:59:50.778Z,24.1
2016-07-11T17:03:05.969Z,24.1
2016-07-11T17:06:21.067Z,24
2016-07-11T17:09:35.946Z,24
2016-07-11T17:12:51.123Z,23.9
2016-07-11T17:16:05.837Z,23.8
2016-07-11T17:19:20.610Z,23.8
2016-07-11T17:22:35.803Z,23.7
2016-07-11T17:25:50.849Z,23.7
2016-07-11T17:29:05.834Z,23.6
2016-07-11T17:32:16.980Z,23.5
2016-07-11T17:35:34.034Z,23.5
2016-07-11T17:38:48.921Z,23.4
2016-07-11T17:42:04.060Z,23.4
2016-07-11T17:45:19.030Z,23.4
2016-07-11T17:48:34.120Z,23.3
2016-07-11T17:51:49.198Z,23.3
2016-07-11T17:55:04.197Z,23.2
2016-07-11T17:58:19.268Z,23.2
2016-07-11T18:01:34.360Z,23.1
2016-07-11T18:04:49.465Z,23
2016-07-11T18:08:04.638Z,23
2016-07-11T18:11:19.673Z,23
2016-07-11T18:14:34.686Z,22.9
2016-07-11T18:17:49.547Z,22.8
2016-07-11T18:21:04.116Z,22.8
2016-07-11T18:24:19.239Z,22.8
2016-07-11T18:27:34.302Z,22.8
2016-07-11T18:30:49.565Z,22.7
2016-07-11T18:34:04.671Z,22.7
2016-07-11T18:37:19.717Z,22.7
2016-07-11T18:40:32.664Z,22.6
2016-07-11T18:43:49.626Z,22.5
2016-07-11T18:47:04.815Z,22.5
2016-07-11T18:50:18.025Z,22.4
2016-07-11T18:53:33.033Z,22.3
2016-07-11T18:56:50.316Z,22.3
2016-07-11T18:59:55.818Z,22.3
2016-07-11T19:03:10.693Z,22.2
2016-07-11T19:06:25.825Z,22.2
2016-07-11T19:09:45.950Z,22.2
2016-07-11T19:12:51.405Z,22.1
2016-07-11T19:16:06.479Z,22.1
2016-07-11T19:19:21.183Z,22.1
2016-07-11T19:22:36.564Z,22.1
2016-07-11T19:25:51.376Z,22
2016-07-11T19:29:06.529Z,22
2016-07-11T19:32:21.634Z,22
2016-07-11T19:35:36.745Z,21.9
2016-07-11T19:38:51.892Z,21.8
2016-07-11T19:42:06.907Z,21.8
2016-07-11T19:45:21.978Z,21.8
2016-07-11T19:48:42.043Z,21.7
2016-07-11T19:51:47.258Z,21.7
2016-07-11T19:55:02.099Z,21.6
2016-07-11T19:58:17.145Z,21.6
2016-07-11T20:01:31.951Z,21.6
2016-07-11T20:04:47.129Z,21.5
2016-07-11T20:08:02.030Z,21.4
2016-07-11T20:11:16.653Z,21.3
2016-07-11T20:14:31.469Z,21.3
2016-07-11T20:17:51.630Z,21.2
2016-07-11T20:20:56.926Z,21.1
2016-07-11T20:24:11.788Z,21.1
2016-07-11T20:27:26.750Z,21.1
2016-07-11T20:30:46.699Z,21
2016-07-11T20:33:51.982Z,21
2016-07-11T20:37:04.929Z,21
2016-07-11T20:40:21.860Z,21
2016-07-11T20:43:36.711Z,20.9
2016-07-11T20:46:51.590Z,20.9
2016-07-11T20:50:06.319Z,20.8
2016-07-11T20:53:21.023Z,20.8
2016-07-11T20:56:35.987Z,20.8
2016-07-11T20:59:50.858Z,20.8
2016-07-11T21:03:05.801Z,20.7
2016-07-11T21:06:18.411Z,20.7
2016-07-11T21:09:33.331Z,20.7
2016-07-11T21:12:48.242Z,20.7
2016-07-11T21:16:03.014Z,20.6
2016-07-11T21:19:17.779Z,20.6
2016-07-11T21:22:32.742Z,20.6
2016-07-11T21:25:47.499Z,20.5
2016-07-11T21:29:02.362Z,20.6
2016-07-11T21:32:17.038Z,20.5
2016-07-11T21:35:31.832Z,20.5
2016-07-11T21:38:51.611Z,20.4
2016-07-11T21:41:56.758Z,20.4
2016-07-11T21:45:11.246Z,20.3
2016-07-11T21:48:23.874Z,20.3
2016-07-11T21:51:45.463Z,20.3
2016-07-11T21:54:50.714Z,20.2
2016-07-11T21:58:04.613Z,20.2
2016-07-11T22:01:19.408Z,20.2
2016-07-11T22:04:34.396Z,20.2
2016-07-11T22:07:49.229Z,20.1
2016-07-11T22:11:04.188Z,20.1
2016-07-11T22:14:18.866Z,20.1
2016-07-11T22:17:37.698Z,20
2016-07-11T22:20:48.224Z,20
2016-07-11T22:24:02.782Z,19.9
2016-07-11T22:27:17.616Z,19.9
2016-07-11T22:30:32.100Z,19.8
2016-07-11T22:33:51.615Z,19.8
2016-07-11T22:36:56.738Z,19.7
2016-07-11T22:40:06.892Z,19.7
2016-07-11T22:43:23.654Z,19.7
2016-07-11T22:46:43.470Z,19.6
2016-07-11T22:49:48.634Z,19.6
2016-07-11T22:53:03.159Z,19.5
2016-07-11T22:56:17.892Z,19.5
2016-07-11T22:59:32.615Z,19.5
2016-07-11T23:02:47.268Z,19.4
2016-07-11T23:06:02.004Z,19.4
2016-07-11T23:09:16.702Z,19.4
2016-07-11T23:12:31.163Z,19.3
2016-07-11T23:15:51.047Z,19.3
2016-07-11T23:18:56.146Z,19.2
2016-07-11T23:22:07.532Z,19.2
2016-07-11T23:25:22.093Z,19.2
2016-07-11T23:28:36.934Z,19.1
2016-07-11T23:31:51.686Z,19
2016-07-11T23:35:06.490Z,18.9
2016-07-11T23:38:21.335Z,18.9
2016-07-11T23:41:36.022Z,18.9
2016-07-11T23:44:50.825Z,19
2016-07-11T23:48:05.551Z,19
2016-07-11T23:51:20.315Z,19
2016-07-11T23:54:34.733Z,19
2016-07-11T23:57:49.540Z,19
